Time;durP1;ratioP1;P1;durP2;ratioP2;P2;SDS_P1;SDS_P2;PMS_P1;PMS_P2;Temp;Humidity;BMP_temperature;BMP_pressure;BME280_temperature;BME280_humidity;BME280_pressure;Samples;Min_cycle;Max_cycle;Signal;HPM_P1;HPM_P2
2023/06/06 00:01:56;;;;;;;3.88;1.65;;;20.30;96.70;;;;;;5039522;28;20045;-70
2023/06/06 00:04:27;;;;;;;6.15;1.92;;;20.30;96.70;;;;;;5038383;28;20052;-71
2023/06/06 00:06:56;;;;;;;10.88;2.08;;;20.20;96.70;;;;;;5041179;28;20060;-70
2023/06/06 00:09:25;;;;;;;4.55;1.73;;;20.30;96.70;;;;;;5037279;28;20394;-70
2023/06/06 00:11:56;;;;;;;4.65;1.65;;;20.30;96.70;;;;;;5033890;28;20564;-70
2023/06/06 00:14:31;;;;;;;4.20;1.90;;;20.30;96.70;;;;;;5032962;28;20187;-71
2023/06/06 00:17:00;;;;;;;6.32;2.25;;;20.30;96.70;;;;;;5014723;28;20052;-71
2023/06/06 00:19:29;;;;;;;7.18;1.85;;;20.30;96.70;;;;;;5025812;28;20045;-70
2023/06/06 00:21:58;;;;;;;8.23;2.28;;;20.20;96.70;;;;;;5034673;28;20033;-70
2023/06/06 00:24:26;;;;;;;4.38;1.80;;;20.20;96.70;;;;;;5042591;28;20124;-70
2023/06/06 00:27:19;;;;;;;4.95;1.58;;;20.20;96.70;;;;;;5040738;28;20166;-69
2023/06/06 00:29:49;;;;;;;7.00;2.03;;;20.10;96.70;;;;;;5037502;28;20049;-70
2023/06/06 00:32:19;;;;;;;3.67;1.45;;;20.10;96.70;;;;;;5039714;28;20127;-71
2023/06/06 00:34:49;;;;;;;2.45;1.60;;;20.00;96.70;;;;;;5036669;28;20043;-70
2023/06/06 00:37:18;;;;;;;6.07;1.40;;;20.00;96.70;;;;;;5055634;28;20049;-70
2023/06/06 00:39:47;;;;;;;3.90;1.30;;;20.00;96.70;;;;;;5043909;28;20692;-70
2023/06/06 00:42:16;;;;;;;6.43;1.90;;;20.00;96.70;;;;;;5042157;28;20072;-71
2023/06/06 00:44:44;;;;;;;7.10;1.55;;;20.00;96.70;;;;;;5022174;28;20041;-70
2023/06/06 00:47:27;;;;;;;3.95;1.42;;;20.10;96.70;;;;;;5040820;28;20076;-71
2023/06/06 00:49:58;;;;;;;4.03;1.17;;;20.10;96.70;;;;;;5041496;28;20053;-70
2023/06/06 00:52:27;;;;;;;3.55;1.35;;;20.10;96.70;;;;;;5021888;28;20107;-70
2023/06/06 00:54:56;;;;;;;6.18;1.60;;;20.20;96.70;;;;;;5039988;28;20033;-69
2023/06/06 00:57:26;;;;;;;2.38;1.38;;;20.10;96.70;;;;;;5045642;28;20049;-70
2023/06/06 00:59:56;;;;;;;2.35;1.27;;;20.10;96.70;;;;;;5024482;28;20637;-70
2023/06/06 01:02:24;;;;;;;4.40;1.60;;;20.10;96.70;;;;;;5043157;28;20075;-70
2023/06/06 01:04:53;;;;;;;5.40;1.50;;;20.10;96.70;;;;;;5046031;28;20565;-70
2023/06/06 01:07:24;;;;;;;3.38;1.52;;;20.10;96.70;;;;;;5046158;28;20040;-70
2023/06/06 01:09:52;;;;;;;5.32;1.65;;;20.10;96.70;;;;;;5045192;28;20495;-70
2023/06/06 01:12:31;;;;;;;2.08;1.30;;;20.10;96.70;;;;;;5059303;28;20046;-70
2023/06/06 01:15:10;;;;;;;6.60;1.52;;;20.00;96.70;;;;;;5026591;28;20049;-70
2023/06/06 01:17:41;;;;;;;2.58;1.33;;;20.00;96.70;;;;;;5045118;28;20052;-69
2023/06/06 01:20:11;;;;;;;5.15;1.50;;;20.00;96.70;;;;;;5044326;28;20053;-70
2023/06/06 01:22:43;;;;;;;5.30;1.65;;;20.00;96.70;;;;;;5038891;28;20041;-69
2023/06/06 01:25:13;;;;;;;4.32;1.98;;;20.00;96.70;;;;;;5046101;28;20103;-69
2023/06/06 01:27:45;;;;;;;5.70;1.88;;;20.00;96.70;;;;;;5042613;28;20453;-69
2023/06/06 01:30:16;;;;;;;3.83;1.60;;;20.00;96.70;;;;;;5043348;28;20853;-69
2023/06/06 01:32:55;;;;;;;4.45;1.67;;;19.90;96.70;;;;;;5043423;28;20475;-69
2023/06/06 01:35:35;;;;;;;3.83;1.88;;;19.90;96.70;;;;;;5037906;28;20521;-69
2023/06/06 01:38:12;;;;;;;5.85;1.48;;;20.00;96.70;;;;;;5024695;28;20045;-69
2023/06/06 01:40:44;;;;;;;4.03;1.30;;;20.00;96.70;;;;;;5044968;28;20037;-69
2023/06/06 01:43:15;;;;;;;4.68;1.70;;;20.00;96.70;;;;;;5041118;28;20548;-69
2023/06/06 01:45:45;;;;;;;5.43;1.42;;;20.00;96.70;;;;;;5033009;28;20048;-69
2023/06/06 01:48:14;;;;;;;3.83;1.52;;;20.00;96.70;;;;;;5042120;28;20049;-69
2023/06/06 01:50:44;;;;;;;4.70;1.70;;;20.00;96.70;;;;;;5039581;28;20052;-69
2023/06/06 01:53:14;;;;;;;2.75;1.40;;;20.00;96.70;;;;;;5044418;28;20076;-70
2023/06/06 01:55:43;;;;;;;6.80;1.80;;;20.00;96.70;;;;;;5046729;28;20079;-69
2023/06/06 01:58:12;;;;;;;2.30;1.70;;;20.00;96.70;;;;;;5042385;28;20103;-69
2023/06/06 02:00:40;;;;;;;5.38;2.10;;;20.00;96.70;;;;;;5044636;28;20082;-69
2023/06/06 02:03:08;;;;;;;3.22;1.67;;;19.90;96.70;;;;;;5046174;28;20568;-69
2023/06/06 02:05:37;;;;;;;6.97;1.85;;;19.90;96.70;;;;;;5044476;28;20080;-69
2023/06/06 02:08:06;;;;;;;6.45;1.85;;;19.80;96.70;;;;;;5043449;28;20048;-69
2023/06/06 02:10:36;;;;;;;5.32;1.45;;;19.80;96.70;;;;;;5043739;28;20045;-70
2023/06/06 02:13:07;;;;;;;3.33;1.40;;;19.80;96.70;;;;;;5038560;28;20060;-69
2023/06/06 02:15:36;;;;;;;7.72;2.00;;;19.70;96.70;;;;;;5038855;28;20411;-70
2023/06/06 02:18:05;;;;;;;4.50;1.88;;;19.70;96.70;;;;;;5040734;28;20050;-69
2023/06/06 02:20:34;;;;;;;4.82;1.40;;;19.70;96.70;;;;;;5042748;28;20059;-69
2023/06/06 02:23:02;;;;;;;3.75;1.20;;;19.70;96.70;;;;;;5039454;28;20045;-69
2023/06/06 02:25:33;;;;;;;3.58;1.52;;;19.60;96.70;;;;;;5044651;28;20053;-69
2023/06/06 02:28:03;;;;;;;4.30;1.65;;;19.60;96.70;;;;;;5036038;28;20048;-69
2023/06/06 02:30:32;;;;;;;4.97;1.60;;;19.60;96.70;;;;;;5041007;28;20424;-69
2023/06/06 02:33:01;;;;;;;8.15;1.63;;;19.60;96.70;;;;;;5039828;28;20495;-69
2023/06/06 02:35:29;;;;;;;5.35;1.55;;;19.60;96.70;;;;;;5043049;28;20037;-69
2023/06/06 02:37:57;;;;;;;3.13;1.45;;;19.40;96.70;;;;;;5038553;28;20066;-69
2023/06/06 02:40:27;;;;;;;5.38;1.50;;;19.40;96.70;;;;;;5038691;28;20053;-69
2023/06/06 02:42:59;;;;;;;6.90;1.73;;;19.50;96.70;;;;;;5038648;28;20715;-69
2023/06/06 02:45:30;;;;;;;3.97;1.35;;;19.40;96.70;;;;;;5023607;28;20056;-69
2023/06/06 02:47:58;;;;;;;3.53;1.60;;;19.40;96.70;;;;;;5040725;28;20051;-69
2023/06/06 02:50:28;;;;;;;4.03;1.60;;;19.40;96.70;;;;;;5052512;28;20046;-69
2023/06/06 02:52:57;;;;;;;3.75;1.42;;;19.50;96.70;;;;;;5035280;28;20049;-69
2023/06/06 02:55:25;;;;;;;3.15;1.60;;;19.40;96.70;;;;;;5041737;28;20049;-69
2023/06/06 02:57:53;;;;;;;4.90;1.77;;;19.40;96.70;;;;;;5017831;28;20619;-69
2023/06/06 03:00:23;;;;;;;6.05;1.20;;;19.40;96.70;;;;;;5037379;28;20053;-69
2023/06/06 03:02:53;;;;;;;4.18;1.83;;;19.40;96.70;;;;;;5037347;28;20033;-69
2023/06/06 03:05:24;;;;;;;7.78;1.60;;;19.40;96.70;;;;;;5042544;28;20045;-69
2023/06/06 03:07:52;;;;;;;2.63;1.30;;;19.40;96.70;;;;;;5015087;28;20427;-69
2023/06/06 03:10:20;;;;;;;7.35;1.80;;;19.30;96.70;;;;;;5040592;28;20115;-69
2023/06/06 03:12:50;;;;;;;3.10;1.90;;;19.10;96.70;;;;;;5041656;28;20060;-69
2023/06/06 03:15:20;;;;;;;5.13;1.70;;;19.10;96.70;;;;;;5033386;28;20139;-69
2023/06/06 03:17:52;;;;;;;3.03;1.80;;;19.20;96.70;;;;;;5036347;28;20103;-69
2023/06/06 03:20:24;;;;;;;6.88;1.60;;;19.20;96.70;;;;;;5039804;28;20049;-71
2023/06/06 03:23:02;;;;;;;3.17;1.55;;;19.30;96.70;;;;;;5027023;28;20045;-71
2023/06/06 03:25:33;;;;;;;4.03;1.38;;;19.30;96.70;;;;;;5050275;28;20059;-70
2023/06/06 03:28:02;;;;;;;5.10;1.65;;;19.30;96.70;;;;;;5022947;28;20055;-70
2023/06/06 03:30:30;;;;;;;2.30;1.40;;;19.50;96.70;;;;;;5036653;28;20045;-70
2023/06/06 03:33:05;;;;;;;3.38;1.65;;;19.50;96.70;;;;;;5040352;28;20060;-70
2023/06/06 03:35:36;;;;;;;3.72;1.60;;;19.40;96.70;;;;;;5038519;28;20099;-71
2023/06/06 03:38:05;;;;;;;4.05;1.38;;;19.40;96.70;;;;;;5015731;28;20186;-70
2023/06/06 03:40:35;;;;;;;3.45;1.45;;;19.40;96.70;;;;;;5041218;28;20068;-70
2023/06/06 03:43:03;;;;;;;2.47;1.70;;;19.40;96.70;;;;;;5039352;28;20051;-69
2023/06/06 03:45:32;;;;;;;2.88;1.80;;;19.40;96.70;;;;;;5032708;28;20045;-69
2023/06/06 03:48:02;;;;;;;5.25;1.88;;;19.40;96.70;;;;;;5040136;28;20110;-69
2023/06/06 03:50:30;;;;;;;3.75;1.63;;;19.40;96.70;;;;;;5040263;28;20049;-68
2023/06/06 03:52:59;;;;;;;6.95;1.80;;;19.50;96.70;;;;;;5054831;28;20049;-69
2023/06/06 03:55:28;;;;;;;5.65;1.90;;;19.50;96.70;;;;;;5029119;28;20147;-69
2023/06/06 03:57:56;;;;;;;4.68;1.42;;;19.60;96.70;;;;;;5037640;28;20037;-69
2023/06/06 04:00:25;;;;;;;4.82;1.50;;;19.60;96.70;;;;;;5040694;28;20041;-69
2023/06/06 04:02:53;;;;;;;3.47;1.55;;;19.60;96.70;;;;;;5035761;28;20120;-69
2023/06/06 04:05:23;;;;;;;6.07;1.75;;;19.70;96.70;;;;;;5038440;28;20042;-69
2023/06/06 04:07:52;;;;;;;4.88;1.83;;;19.70;96.70;;;;;;5037183;28;20056;-69
2023/06/06 04:10:20;;;;;;;7.13;1.88;;;19.70;96.70;;;;;;5041929;28;20052;-68
2023/06/06 04:12:49;;;;;;;8.63;1.73;;;19.80;96.70;;;;;;5039529;28;20044;-69
2023/06/06 04:15:17;;;;;;;6.07;1.63;;;19.80;96.70;;;;;;5029007;28;20044;-69
2023/06/06 04:17:45;;;;;;;4.20;1.77;;;19.80;96.70;;;;;;5035624;28;20053;-69
2023/06/06 04:20:14;;;;;;;5.00;2.10;;;19.80;96.70;;;;;;5035332;28;20118;-69
2023/06/06 04:22:44;;;;;;;4.85;2.28;;;19.90;96.70;;;;;;5032806;28;20119;-69
2023/06/06 04:25:15;;;;;;;4.35;2.00;;;20.00;96.70;;;;;;5032345;28;21129;-69
2023/06/06 04:27:45;;;;;;;3.08;1.65;;;20.00;96.70;;;;;;5041408;28;20049;-68
2023/06/06 04:30:14;;;;;;;5.10;1.90;;;20.00;96.70;;;;;;5023154;28;20065;-69
2023/06/06 04:32:43;;;;;;;2.75;1.80;;;20.00;96.70;;;;;;5034982;28;20507;-69
2023/06/06 04:35:27;;;;;;;5.00;2.08;;;20.10;96.70;;;;;;5039000;28;20049;-69
2023/06/06 04:37:58;;;;;;;3.70;2.08;;;20.00;96.70;;;;;;5036481;28;20068;-69
2023/06/06 04:40:32;;;;;;;2.40;1.92;;;20.00;96.70;;;;;;5042091;28;20118;-69
2023/06/06 04:43:23;;;;;;;11.60;2.53;;;20.10;96.70;;;;;;5033520;28;20049;-69
2023/06/06 04:45:53;;;;;;;6.65;2.08;;;20.20;96.70;;;;;;5031012;28;20044;-70
2023/06/06 04:48:25;;;;;;;5.15;2.20;;;20.20;96.70;;;;;;5022308;28;20059;-69
2023/06/06 04:50:56;;;;;;;3.17;2.08;;;20.20;96.70;;;;;;5037897;28;20049;-69
2023/06/06 04:53:47;;;;;;;5.70;2.10;;;20.20;96.70;;;;;;5041254;28;20063;-69
2023/06/06 04:56:16;;;;;;;3.63;1.85;;;20.00;96.70;;;;;;5039976;28;20413;-69
2023/06/06 04:58:45;;;;;;;5.45;2.10;;;20.00;96.70;;;;;;5042398;28;20041;-69
2023/06/06 05:01:13;;;;;;;4.22;1.80;;;20.10;96.70;;;;;;5040977;28;20045;-69
2023/06/06 05:03:41;;;;;;;4.78;1.90;;;20.00;96.70;;;;;;5055688;28;20076;-69
2023/06/06 05:06:09;;;;;;;4.20;2.10;;;20.10;96.70;;;;;;5038953;28;20053;-69
2023/06/06 05:08:41;;;;;;;2.92;1.80;;;20.20;96.70;;;;;;5039207;28;20790;-69
2023/06/06 05:11:09;;;;;;;3.85;2.03;;;20.20;96.70;;;;;;5040617;28;20079;-69
2023/06/06 05:13:38;;;;;;;3.40;1.80;;;20.30;96.70;;;;;;5038769;28;20051;-69
2023/06/06 05:16:07;;;;;;;4.40;1.98;;;20.20;96.70;;;;;;5039286;28;20103;-69
2023/06/06 05:18:36;;;;;;;4.35;2.33;;;20.20;96.70;;;;;;5029826;28;20064;-69
2023/06/06 05:21:06;;;;;;;4.47;2.05;;;20.20;96.70;;;;;;5041736;28;20037;-69
2023/06/06 05:23:36;;;;;;;6.75;2.30;;;20.30;96.70;;;;;;5040036;28;20045;-69
2023/06/06 05:26:06;;;;;;;9.15;1.90;;;20.40;96.70;;;;;;5039537;28;20048;-69
2023/06/06 05:28:43;;;;;;;2.38;1.80;;;20.40;96.70;;;;;;5044968;28;20049;-69
2023/06/06 05:31:16;;;;;;;2.75;1.92;;;20.40;96.70;;;;;;5039443;28;20051;-69
2023/06/06 05:33:53;;;;;;;5.60;1.85;;;20.50;96.70;;;;;;5046428;28;20068;-69
2023/06/06 05:36:21;;;;;;;2.17;1.60;;;20.60;96.70;;;;;;5041157;28;20485;-69
2023/06/06 05:38:49;;;;;;;2.42;1.80;;;20.70;96.70;;;;;;5041599;28;20040;-69
2023/06/06 05:41:20;;;;;;;3.58;1.88;;;20.70;96.70;;;;;;5042377;28;20049;-69
2023/06/06 05:43:48;;;;;;;4.45;2.28;;;20.70;96.70;;;;;;5040363;28;20392;-69
2023/06/06 05:46:17;;;;;;;2.65;1.70;;;20.60;96.70;;;;;;5039469;28;20073;-69
2023/06/06 05:48:45;;;;;;;4.43;1.90;;;20.70;96.70;;;;;;5046218;28;20059;-69
2023/06/06 05:51:15;;;;;;;5.55;1.80;;;20.80;96.70;;;;;;5044707;28;20041;-69
2023/06/06 05:53:46;;;;;;;2.50;1.70;;;20.80;96.70;;;;;;5035988;28;20049;-69
2023/06/06 05:56:18;;;;;;;3.58;1.48;;;20.80;96.70;;;;;;5037365;28;20044;-69
2023/06/06 05:58:49;;;;;;;2.00;1.70;;;20.80;96.70;;;;;;5043370;28;20076;-69
2023/06/06 06:01:21;;;;;;;2.97;1.67;;;20.80;96.70;;;;;;5041972;28;20060;-70
2023/06/06 06:03:52;;;;;;;2.97;1.60;;;20.80;96.70;;;;;;5036242;28;20056;-69
2023/06/06 06:06:31;;;;;;;4.53;1.83;;;20.80;96.70;;;;;;5045325;28;20437;-69
2023/06/06 06:09:02;;;;;;;2.13;1.90;;;20.90;96.70;;;;;;5046041;28;20485;-69
2023/06/06 06:11:30;;;;;;;2.63;1.35;;;20.90;96.70;;;;;;5043445;28;20143;-69
2023/06/06 06:14:00;;;;;;;2.40;1.77;;;21.00;96.70;;;;;;5041433;28;20049;-69
2023/06/06 06:16:29;;;;;;;3.00;1.42;;;21.00;96.70;;;;;;5023037;28;20184;-69
2023/06/06 06:18:57;;;;;;;3.08;2.08;;;21.00;96.70;;;;;;5035843;28;20116;-69
2023/06/06 06:21:25;;;;;;;3.35;1.65;;;21.10;96.70;;;;;;5040686;28;20045;-69
2023/06/06 06:23:53;;;;;;;3.22;1.90;;;21.10;96.70;;;;;;5040947;28;20037;-69
2023/06/06 06:26:21;;;;;;;2.17;1.60;;;21.10;96.70;;;;;;5043190;28;20053;-69
2023/06/06 06:28:53;;;;;;;1.75;1.50;;;21.00;96.70;;;;;;5044897;28;20132;-69
2023/06/06 06:31:23;;;;;;;2.17;1.58;;;21.00;96.70;;;;;;5044776;28;20037;-69
2023/06/06 06:33:51;;;;;;;5.68;2.00;;;20.90;96.70;;;;;;5045217;28;20080;-69
2023/06/06 06:36:20;;;;;;;3.70;2.00;;;20.90;96.70;;;;;;5044292;28;20047;-69
2023/06/06 06:38:49;;;;;;;2.67;1.90;;;20.90;96.70;;;;;;5042420;28;20051;-70
2023/06/06 06:41:17;;;;;;;2.35;1.60;;;21.00;96.70;;;;;;5038143;28;20049;-70
2023/06/06 06:43:45;;;;;;;8.43;2.25;;;21.10;96.70;;;;;;5042320;28;20492;-70
2023/06/06 06:46:17;;;;;;;2.08;1.88;;;21.10;96.70;;;;;;5040037;28;20091;-69
2023/06/06 06:48:50;;;;;;;4.50;4.07;;;21.10;96.70;;;;;;5042949;28;20079;-70
2023/06/06 06:51:21;;;;;;;6.57;5.88;;;21.20;96.70;;;;;;5058204;28;20049;-71
2023/06/06 06:53:51;;;;;;;17.83;13.88;;;21.30;96.70;;;;;;5044754;28;20071;-69
2023/06/06 06:56:22;;;;;;;25.42;22.83;;;21.40;96.70;;;;;;5038654;28;20045;-72
2023/06/06 06:58:51;;;;;;;7.30;6.25;;;21.50;96.70;;;;;;5042072;28;20067;-70
2023/06/06 07:01:19;;;;;;;6.57;3.15;;;21.60;96.70;;;;;;5033555;28;20469;-69
2023/06/06 07:03:51;;;;;;;5.20;3.13;;;21.60;96.70;;;;;;5044294;28;20069;-70
2023/06/06 07:06:20;;;;;;;3.22;2.17;;;21.60;96.70;;;;;;5036471;28;20041;-70
2023/06/06 07:08:49;;;;;;;3.83;2.15;;;21.70;96.70;;;;;;5043062;28;20503;-70
2023/06/06 07:11:17;;;;;;;5.45;2.15;;;21.70;96.70;;;;;;5023943;28;20049;-71
2023/06/06 07:13:45;;;;;;;3.42;2.53;;;21.80;96.70;;;;;;5038199;28;20518;-69
2023/06/06 07:16:13;;;;;;;6.30;2.20;;;21.90;96.70;;;;;;5039768;28;20040;-69
2023/06/06 07:18:42;;;;;;;25.50;12.63;;;22.00;96.70;;;;;;5038753;28;20067;-68
2023/06/06 07:21:12;;;;;;;4.80;3.38;;;22.10;96.70;;;;;;5044280;28;20041;-69
2023/06/06 07:23:40;;;;;;;4.35;2.35;;;22.30;96.70;;;;;;5043999;28;20522;-71
2023/06/06 07:26:10;;;;;;;3.28;2.25;;;22.40;96.70;;;;;;5044314;28;20055;-71
2023/06/06 07:28:38;;;;;;;9.18;4.25;;;22.60;96.70;;;;;;5041245;28;20128;-69
2023/06/06 07:31:10;;;;;;;11.80;5.38;;;22.70;96.70;;;;;;5043086;28;20134;-71
2023/06/06 07:33:42;;;;;;;17.08;6.95;;;22.70;96.70;;;;;;5043999;28;20043;-69
2023/06/06 07:36:12;;;;;;;2.88;2.15;;;22.70;96.70;;;;;;5041931;28;20055;-69
2023/06/06 07:38:40;;;;;;;5.30;2.92;;;22.70;96.70;;;;;;5043210;28;20151;-69
2023/06/06 07:41:09;;;;;;;12.57;5.35;;;22.80;96.70;;;;;;5041629;28;20130;-72
2023/06/06 07:43:38;;;;;;;3.78;2.30;;;22.80;96.70;;;;;;5041406;28;20044;-69
2023/06/06 07:46:07;;;;;;;6.20;3.22;;;22.90;96.70;;;;;;5043536;28;20138;-69
2023/06/06 07:48:35;;;;;;;11.73;4.10;;;23.00;96.70;;;;;;5042003;28;20041;-69
2023/06/06 07:51:04;;;;;;;3.92;2.20;;;23.00;96.70;;;;;;5038595;28;20049;-69
2023/06/06 07:53:33;;;;;;;7.65;3.80;;;23.10;96.70;;;;;;5042478;28;20037;-69
2023/06/06 07:56:03;;;;;;;6.53;2.80;;;23.20;96.70;;;;;;5039408;28;20076;-70
2023/06/06 07:58:40;;;;;;;9.98;3.47;;;23.10;96.70;;;;;;5040752;28;20048;-70
2023/06/06 08:01:10;;;;;;;5.43;2.22;;;23.20;96.70;;;;;;5042695;28;20103;-70
2023/06/06 08:03:39;;;;;;;2.42;1.95;;;23.20;96.70;;;;;;5035936;28;20045;-70
2023/06/06 08:06:07;;;;;;;2.72;1.50;;;23.30;96.70;;;;;;5042770;28;20045;-69
2023/06/06 08:08:40;;;;;;;6.85;2.45;;;23.30;96.70;;;;;;5041436;28;20044;-70
2023/06/06 08:11:08;;;;;;;4.57;2.05;;;23.50;96.70;;;;;;5040331;28;20049;-69
2023/06/06 08:13:37;;;;;;;3.95;1.85;;;23.60;96.70;;;;;;5042516;28;20142;-69
2023/06/06 08:16:05;;;;;;;2.15;1.70;;;23.70;96.70;;;;;;5042569;28;20148;-69
2023/06/06 08:18:34;;;;;;;4.75;1.95;;;23.70;96.70;;;;;;5035803;28;20033;-69
2023/06/06 08:21:03;;;;;;;2.30;1.80;;;23.80;96.70;;;;;;5040804;28;20036;-69
2023/06/06 08:23:33;;;;;;;2.20;1.65;;;23.80;96.70;;;;;;5038945;28;20069;-69
2023/06/06 08:26:03;;;;;;;2.83;2.00;;;23.80;96.70;;;;;;5041417;28;20110;-70
2023/06/06 08:28:33;;;;;;;3.75;2.08;;;23.80;96.70;;;;;;5042761;28;20055;-68
2023/06/06 08:31:03;;;;;;;4.13;1.73;;;23.70;96.70;;;;;;5039324;28;20045;-68
2023/06/06 08:33:32;;;;;;;2.80;2.13;;;23.60;96.70;;;;;;5042742;28;20053;-70
2023/06/06 08:36:00;;;;;;;4.20;1.88;;;23.90;96.70;;;;;;5042720;28;20049;-69
2023/06/06 08:38:31;;;;;;;5.70;2.05;;;24.20;96.70;;;;;;5041499;28;20072;-70
2023/06/06 08:41:03;;;;;;;3.63;2.33;;;24.30;96.70;;;;;;5041590;28;20053;-70
2023/06/06 08:43:36;;;;;;;5.03;1.83;;;24.30;96.70;;;;;;5042608;28;20124;-70
2023/06/06 08:46:05;;;;;;;3.33;1.80;;;24.20;96.70;;;;;;5034661;28;20052;-70
2023/06/06 08:48:35;;;;;;;4.40;2.08;;;24.00;96.70;;;;;;5040234;28;20068;-70
2023/06/06 08:51:05;;;;;;;3.90;1.92;;;24.00;96.70;;;;;;5042060;28;20041;-70
2023/06/06 08:53:35;;;;;;;4.15;2.08;;;23.90;96.70;;;;;;5041535;28;20040;-70
2023/06/06 08:56:08;;;;;;;3.03;2.00;;;23.90;96.70;;;;;;5041956;28;20048;-70
2023/06/06 08:58:38;;;;;;;3.63;2.10;;;24.10;96.70;;;;;;5041231;28;20063;-72
2023/06/06 09:01:07;;;;;;;2.47;2.05;;;24.20;96.70;;;;;;5044394;28;20041;-70
2023/06/06 09:03:42;;;;;;;4.72;2.28;;;24.10;96.70;;;;;;5046416;28;20581;-69
2023/06/06 09:06:17;;;;;;;2.35;2.03;;;24.20;96.70;;;;;;5045317;28;20052;-70
2023/06/06 09:08:46;;;;;;;3.95;2.30;;;24.30;96.70;;;;;;5044852;28;20079;-72
2023/06/06 09:11:17;;;;;;;3.92;1.90;;;24.40;96.70;;;;;;5046231;28;20055;-70
2023/06/06 09:13:46;;;;;;;3.45;2.00;;;24.50;96.70;;;;;;5044567;28;20138;-71
2023/06/06 09:16:14;;;;;;;3.53;1.70;;;24.60;96.70;;;;;;5045937;28;20506;-70
2023/06/06 09:18:43;;;;;;;5.05;1.75;;;24.70;96.70;;;;;;5027231;28;20077;-70
2023/06/06 09:21:13;;;;;;;3.10;1.50;;;24.90;96.70;;;;;;5043189;28;20060;-70
2023/06/06 09:23:42;;;;;;;1.88;1.35;;;24.90;96.70;;;;;;5041838;28;20494;-71
2023/06/06 09:26:20;;;;;;;2.90;1.75;;;24.80;96.70;;;;;;5045677;28;20627;-70
2023/06/06 09:28:49;;;;;;;2.25;1.77;;;24.70;96.70;;;;;;5046379;28;20044;-73
2023/06/06 09:31:22;;;;;;;2.08;1.20;;;24.50;96.70;;;;;;5042921;28;20033;-70
2023/06/06 09:33:52;;;;;;;2.63;1.80;;;24.40;96.70;;;;;;5042427;28;20047;-71
2023/06/06 09:36:22;;;;;;;2.22;1.60;;;24.40;96.70;;;;;;5043273;28;20449;-69
2023/06/06 09:38:51;;;;;;;3.47;1.77;;;24.50;96.70;;;;;;5042386;28;20069;-68
2023/06/06 09:41:21;;;;;;;3.58;1.50;;;24.80;96.70;;;;;;5044454;28;20045;-69
2023/06/06 09:43:50;;;;;;;1.92;1.33;;;24.80;96.70;;;;;;5060385;28;20048;-68
2023/06/06 09:46:18;;;;;;;2.15;1.60;;;24.80;96.70;;;;;;5045416;28;20094;-69
2023/06/06 09:48:56;;;;;;;3.25;1.40;;;24.60;96.70;;;;;;5044076;28;20049;-68
2023/06/06 09:51:25;;;;;;;2.58;1.50;;;24.60;96.70;;;;;;5040540;28;20132;-68
2023/06/06 09:53:53;;;;;;;3.45;1.67;;;24.60;96.70;;;;;;5044556;28;20048;-69
2023/06/06 09:56:25;;;;;;;3.80;2.00;;;24.40;96.70;;;;;;5045270;28;20103;-69
2023/06/06 09:58:55;;;;;;;4.22;1.80;;;24.30;96.70;;;;;;5043422;28;20073;-69
2023/06/06 10:01:31;;;;;;;2.45;1.60;;;24.30;96.70;;;;;;5043683;28;20037;-69
2023/06/06 10:04:01;;;;;;;3.00;1.58;;;24.40;96.70;;;;;;5045123;28;20165;-69
2023/06/06 10:06:37;;;;;;;2.88;1.77;;;24.30;96.70;;;;;;5044763;28;20076;-69
2023/06/06 10:09:06;;;;;;;3.08;1.83;;;24.30;96.70;;;;;;5045162;28;20045;-68
2023/06/06 10:11:37;;;;;;;2.85;1.15;;;24.30;96.70;;;;;;5043737;28;20631;-69
2023/06/06 10:14:06;;;;;;;2.40;1.63;;;24.20;96.70;;;;;;5043776;28;20127;-68
2023/06/06 10:16:35;;;;;;;1.73;1.42;;;24.30;96.70;;;;;;5042559;28;20068;-69
2023/06/06 10:19:05;;;;;;;1.95;1.50;;;24.50;96.70;;;;;;5038686;28;20136;-69
2023/06/06 10:21:37;;;;;;;3.22;1.38;;;24.80;96.70;;;;;;5027676;28;20045;-69
2023/06/06 10:24:06;;;;;;;3.55;1.65;;;25.10;96.70;;;;;;5044809;28;20045;-69
2023/06/06 10:26:46;;;;;;;2.58;1.45;;;25.00;96.70;;;;;;5044106;28;20133;-69
2023/06/06 10:29:28;;;;;;;2.42;1.08;;;25.00;96.70;;;;;;5044381;28;20106;-69
2023/06/06 10:32:03;;;;;;;1.90;1.30;;;25.20;96.70;;;;;;5042886;28;20495;-69
2023/06/06 10:34:34;;;;;;;1.58;1.05;;;25.30;96.70;;;;;;5044605;28;20072;-69
2023/06/06 10:37:14;;;;;;;1.80;1.70;;;25.20;96.70;;;;;;5042486;28;20072;-69
2023/06/06 10:39:48;;;;;;;1.77;1.13;;;25.10;96.70;;;;;;5044688;28;20116;-69
2023/06/06 10:42:18;;;;;;;1.38;1.10;;;24.80;96.70;;;;;;5040863;28;20044;-69
2023/06/06 10:44:55;;;;;;;2.78;1.15;;;24.90;96.70;;;;;;5026344;28;20048;-69
2023/06/06 10:47:32;;;;;;;2.40;1.20;;;25.40;96.70;;;;;;5035889;28;20283;-69
2023/06/06 10:50:23;;;;;;;1.50;1.23;;;25.70;96.70;;;;;;5043108;28;20128;-69
2023/06/06 10:52:55;;;;;;;0.80;0.80;;;26.00;96.70;;;;;;5041958;28;20132;-69
2023/06/06 10:55:44;;;;;;;2.75;1.40;;;26.30;96.70;;;;;;5034844;28;20059;-69
2023/06/06 10:58:26;;;;;;;3.65;1.55;;;26.70;96.70;;;;;;5044487;28;20056;-69
2023/06/06 11:01:00;;;;;;;1.75;1.30;;;26.90;96.70;;;;;;5043242;28;20056;-69
2023/06/06 11:03:36;;;;;;;2.65;1.15;;;26.80;96.70;;;;;;5042142;28;20063;-69
2023/06/06 11:06:07;;;;;;;1.88;1.25;;;26.50;96.70;;;;;;5043936;28;20570;-69
2023/06/06 11:08:37;;;;;;;2.67;1.38;;;26.70;96.70;;;;;;5044409;28;20036;-69
2023/06/06 11:11:21;;;;;;;1.65;0.95;;;26.70;96.70;;;;;;5043884;28;20673;-69
2023/06/06 11:13:54;;;;;;;2.30;0.98;;;26.90;96.70;;;;;;5043615;28;20037;-69
2023/06/06 11:16:50;;;;;;;1.48;0.80;;;26.90;96.70;;;;;;5042045;28;20566;-69
2023/06/06 11:19:21;;;;;;;1.23;0.80;;;27.00;96.70;;;;;;5038652;28;20048;-69
2023/06/06 11:21:56;;;;;;;1.63;0.90;;;26.70;96.70;;;;;;5041922;28;20469;-69
2023/06/06 11:24:32;;;;;;;1.63;1.00;;;26.80;96.70;;;;;;5025011;28;20048;-69
2023/06/06 11:27:01;;;;;;;0.80;0.70;;;26.60;96.70;;;;;;5043275;28;20580;-69
2023/06/06 11:29:31;;;;;;;1.35;0.85;;;26.50;96.70;;;;;;5041794;28;20156;-69
2023/06/06 11:31:59;;;;;;;1.38;1.05;;;26.30;96.70;;;;;;5042142;28;20611;-69
2023/06/06 11:34:32;;;;;;;1.23;1.08;;;26.40;96.70;;;;;;5040321;28;20399;-69
2023/06/06 11:37:00;;;;;;;1.23;1.00;;;26.70;96.70;;;;;;5043641;28;20077;-69
2023/06/06 11:39:30;;;;;;;2.05;1.10;;;27.20;96.70;;;;;;5041629;28;20041;-69
2023/06/06 11:41:58;;;;;;;1.83;1.08;;;27.30;96.70;;;;;;5043498;28;20089;-69
2023/06/06 11:44:35;;;;;;;1.60;1.05;;;27.30;96.70;;;;;;5041604;28;20048;-69
2023/06/06 11:47:08;;;;;;;1.15;0.90;;;27.30;96.70;;;;;;5043370;28;20728;-69
2023/06/06 11:49:45;;;;;;;1.73;0.93;;;27.60;96.70;;;;;;5042667;28;20568;-69
2023/06/06 11:52:15;;;;;;;1.40;0.88;;;27.80;96.70;;;;;;5043418;28;20060;-69
2023/06/06 11:54:57;;;;;;;2.85;1.00;;;27.60;96.70;;;;;;5041816;28;20130;-69
2023/06/06 11:57:26;;;;;;;3.08;0.90;;;27.60;96.70;;;;;;5043110;28;20069;-69
2023/06/06 11:59:59;;;;;;;1.95;0.70;;;27.50;96.70;;;;;;5042307;28;20044;-69
2023/06/06 12:02:27;;;;;;;1.17;0.70;;;27.60;96.70;;;;;;5041085;28;20048;-69
2023/06/06 12:04:56;;;;;;;1.80;0.90;;;28.00;96.70;;;;;;5042444;28;20073;-69
2023/06/06 12:07:25;;;;;;;2.42;1.23;;;28.10;96.70;;;;;;5043021;28;20091;-69
2023/06/06 12:09:58;;;;;;;2.22;0.77;;;27.80;96.70;;;;;;5040948;28;20094;-69
2023/06/06 12:12:26;;;;;;;1.25;0.90;;;27.70;96.70;;;;;;5041525;28;20045;-69
2023/06/06 12:14:59;;;;;;;4.05;1.23;;;27.70;96.70;;;;;;5042364;28;20079;-69
2023/06/06 12:17:28;;;;;;;2.10;0.80;;;27.70;96.70;;;;;;5042475;28;20052;-69
2023/06/06 12:19:57;;;;;;;1.38;0.90;;;27.90;96.70;;;;;;5041243;28;20090;-69
2023/06/06 12:22:29;;;;;;;1.60;0.90;;;27.80;96.70;;;;;;5040767;28;20181;-69
2023/06/06 12:24:57;;;;;;;1.35;1.17;;;27.50;96.70;;;;;;5042963;28;20059;-69
2023/06/06 12:27:26;;;;;;;2.70;1.20;;;27.60;96.70;;;;;;5042809;28;20486;-69
2023/06/06 12:29:55;;;;;;;4.35;1.15;;;27.90;96.70;;;;;;5042446;28;20483;-69
2023/06/06 12:32:26;;;;;;;1.33;0.77;;;27.80;96.70;;;;;;5042206;28;20052;-69
2023/06/06 12:35:02;;;;;;;1.17;0.73;;;27.90;96.70;;;;;;5042204;28;20049;-69
2023/06/06 12:37:38;;;;;;;1.42;0.90;;;28.00;96.70;;;;;;5038484;28;20493;-69
2023/06/06 12:40:17;;;;;;;1.33;0.80;;;27.80;96.70;;;;;;5046963;28;20106;-69
2023/06/06 12:42:52;;;;;;;2.00;1.02;;;27.90;96.70;;;;;;5045745;28;20075;-69
2023/06/06 12:45:20;;;;;;;1.75;0.93;;;28.00;96.70;;;;;;5038202;28;20056;-69
2023/06/06 12:47:51;;;;;;;1.20;0.98;;;28.00;96.70;;;;;;5046734;28;20097;-69
2023/06/06 12:50:20;;;;;;;2.17;1.10;;;27.90;96.70;;;;;;5045739;28;20073;-69
2023/06/06 12:52:49;;;;;;;2.05;1.00;;;28.00;96.70;;;;;;5040075;28;20048;-69
2023/06/06 12:55:17;;;;;;;1.73;0.90;;;28.20;96.70;;;;;;5046300;28;20653;-69
2023/06/06 12:57:45;;;;;;;3.20;1.10;;;28.00;96.70;;;;;;5045980;28;20044;-69
2023/06/06 13:00:16;;;;;;;1.33;0.60;;;28.00;96.70;;;;;;5044379;28;20622;-69
2023/06/06 13:02:45;;;;;;;2.47;1.10;;;27.80;96.70;;;;;;5045833;28;20494;-69
2023/06/06 13:05:15;;;;;;;2.30;1.10;;;27.90;96.70;;;;;;5044489;28;20051;-69